createdAt,value
2023-01-02T00:00:04.465Z,13.65
2023-01-02T00:03:29.759Z,13.65
2023-01-02T00:06:54.859Z,13.63
2023-01-02T00:10:20.135Z,13.63
2023-01-02T00:13:45.330Z,13.66
2023-01-02T00:17:10.564Z,13.66
2023-01-02T00:20:35.812Z,13.66
2023-01-02T00:24:01.060Z,13.68
2023-01-02T00:27:26.351Z,13.69
2023-01-02T00:30:51.548Z,13.71
2023-01-02T00:34:16.761Z,13.72
2023-01-02T00:37:42.007Z,13.74
2023-01-02T00:41:07.217Z,13.78
2023-01-02T00:44:32.476Z,13.81
2023-01-02T00:47:57.692Z,13.84
2023-01-02T00:51:22.930Z,13.86
2023-01-02T00:54:48.151Z,13.89
2023-01-02T00:58:13.363Z,13.91
2023-01-02T01:01:38.829Z,13.96
2023-01-02T01:05:03.793Z,13.97
2023-01-02T01:08:29.058Z,14
2023-01-02T01:11:54.288Z,14.01
2023-01-02T01:15:19.487Z,14.02
2023-01-02T01:18:44.865Z,14.03
2023-01-02T01:22:09.973Z,14.03
2023-01-02T01:25:35.185Z,14.04
2023-01-02T01:29:00.421Z,14.04
2023-01-02T01:32:25.617Z,14.04
2023-01-02T01:35:50.868Z,14.01
2023-01-02T01:39:16.027Z,13.98
2023-01-02T01:42:41.272Z,13.97
2023-01-02T01:46:06.500Z,13.94
2023-01-02T01:49:31.710Z,13.92
2023-01-02T01:52:56.910Z,13.91
2023-01-02T01:56:22.103Z,13.89
2023-01-02T01:59:47.292Z,13.88
2023-01-02T02:03:12.524Z,13.87
2023-01-02T02:06:37.695Z,13.85
2023-01-02T02:10:02.965Z,13.83
2023-01-02T02:13:28.186Z,13.82
2023-01-02T02:16:53.424Z,13.82
2023-01-02T02:20:18.648Z,13.82
2023-01-02T02:23:43.857Z,13.82
2023-01-02T02:27:09.052Z,13.81
2023-01-02T02:30:34.255Z,13.8
2023-01-02T02:33:59.488Z,13.8
2023-01-02T02:37:24.714Z,13.8
2023-01-02T02:40:50.663Z,13.79
2023-01-02T02:44:15.937Z,13.79
2023-01-02T02:47:41.140Z,13.78
2023-01-02T02:51:06.372Z,13.75
2023-01-02T02:54:31.608Z,13.74
2023-01-02T02:57:56.816Z,13.73
2023-01-02T03:01:25.500Z,13.71
2023-01-02T03:04:47.246Z,13.69
2023-01-02T03:08:12.434Z,13.69
2023-01-02T03:11:37.641Z,13.68
2023-01-02T03:15:02.872Z,13.69
2023-01-02T03:18:28.148Z,13.73
2023-01-02T03:21:53.353Z,13.74
2023-01-02T03:25:18.578Z,13.72
2023-01-02T03:28:43.810Z,13.67
2023-01-02T03:32:09.011Z,13.65
2023-01-02T03:35:34.287Z,13.65
2023-01-02T03:38:59.477Z,13.65
2023-01-02T03:42:24.700Z,13.66
2023-01-02T03:45:49.962Z,13.68
2023-01-02T03:49:15.169Z,13.7
2023-01-02T03:52:40.381Z,13.7
2023-01-02T03:56:05.568Z,13.7
2023-01-02T03:59:30.776Z,13.72
2023-01-02T04:02:56.047Z,13.72
2023-01-02T04:06:21.243Z,13.69
2023-01-02T04:09:46.604Z,13.69
2023-01-02T04:13:11.683Z,13.67
2023-01-02T04:16:36.923Z,13.67
2023-01-02T04:20:02.121Z,13.66
2023-01-02T04:23:27.344Z,13.65
2023-01-02T04:26:52.537Z,13.63
2023-01-02T04:30:17.762Z,13.64
2023-01-02T04:33:42.967Z,13.64
2023-01-02T04:37:08.119Z,13.65
2023-01-02T04:40:33.290Z,13.67
2023-01-02T04:43:58.579Z,13.68
2023-01-02T04:47:23.655Z,13.7
2023-01-02T04:50:48.903Z,13.73
2023-01-02T04:54:14.051Z,13.73
2023-01-02T04:57:39.266Z,13.72
2023-01-02T05:01:04.456Z,13.7
2023-01-02T05:04:29.590Z,13.69
2023-01-02T05:07:54.770Z,13.68
2023-01-02T05:11:19.910Z,13.67
2023-01-02T05:14:45.096Z,13.66
2023-01-02T05:18:10.301Z,13.65
2023-01-02T05:21:35.444Z,13.63
2023-01-02T05:25:00.664Z,13.61
2023-01-02T05:28:25.853Z,13.59
2023-01-02T05:31:51.052Z,13.54
2023-01-02T05:35:16.280Z,13.51
2023-01-02T05:38:41.409Z,13.49
2023-01-02T05:42:06.577Z,13.47
2023-01-02T05:45:31.747Z,13.47
2023-01-02T05:48:57.017Z,13.44
2023-01-02T05:52:22.310Z,13.43
2023-01-02T05:55:47.343Z,13.4
2023-01-02T05:59:12.521Z,13.38
2023-01-02T06:02:37.717Z,13.36
2023-01-02T06:06:02.856Z,13.34
2023-01-02T06:09:28.178Z,13.3
2023-01-02T06:12:53.219Z,13.28
2023-01-02T06:16:18.548Z,13.26
2023-01-02T06:19:47.290Z,13.26
2023-01-02T06:23:08.861Z,13.24
2023-01-02T06:26:35.311Z,13.23
2023-01-02T06:29:59.325Z,13.23
2023-01-02T06:33:24.587Z,13.26
2023-01-02T06:36:49.781Z,13.3
2023-01-02T06:40:15.027Z,13.32
2023-01-02T06:43:40.281Z,13.34
2023-01-02T06:47:05.495Z,13.36
2023-01-02T06:50:34.780Z,13.38
2023-01-02T06:53:56.039Z,13.4
2023-01-02T06:57:21.293Z,13.4
2023-01-02T07:00:46.643Z,13.39
2023-01-02T07:04:11.825Z,13.39
2023-01-02T07:07:37.059Z,13.36
2023-01-02T07:11:02.317Z,13.33
2023-01-02T07:14:27.546Z,13.3
2023-01-02T07:17:52.807Z,13.27
2023-01-02T07:21:26.360Z,13.26
2023-01-02T07:24:51.635Z,13.24
2023-01-02T07:28:16.905Z,13.23
2023-01-02T07:31:42.158Z,13.22
2023-01-02T07:35:07.466Z,13.2
2023-01-02T07:38:32.511Z,13.18
2023-01-02T07:41:57.704Z,13.16
2023-01-02T07:45:22.871Z,13.15
2023-01-02T07:48:48.054Z,13.1
2023-01-02T07:52:13.271Z,13.06
2023-01-02T07:55:38.422Z,13.04
2023-01-02T07:59:03.590Z,13.02
2023-01-02T08:02:28.870Z,12.99
2023-01-02T08:05:53.920Z,12.99
2023-01-02T08:09:19.095Z,13
2023-01-02T08:12:44.291Z,13.04
2023-01-02T08:16:09.534Z,13.07
2023-01-02T08:19:34.733Z,13.11
2023-01-02T08:22:59.998Z,13.17
2023-01-02T08:26:25.245Z,13.21
2023-01-02T08:29:50.490Z,13.26
2023-01-02T08:33:15.730Z,13.3
2023-01-02T08:36:40.924Z,13.33
2023-01-02T08:40:06.149Z,13.39
2023-01-02T08:43:31.489Z,13.44
2023-01-02T08:46:56.583Z,13.49
2023-01-02T08:50:21.862Z,13.54
2023-01-02T08:53:47.259Z,13.58
2023-01-02T08:57:12.508Z,13.62
2023-01-02T09:00:37.799Z,13.66
2023-01-02T09:04:09.459Z,13.72
2023-01-02T09:07:28.295Z,13.78
2023-01-02T09:10:53.477Z,13.82
2023-01-02T09:14:18.653Z,13.84
2023-01-02T09:17:43.991Z,13.81
2023-01-02T09:21:09.040Z,13.78
2023-01-02T09:24:34.208Z,13.73
2023-01-02T09:27:59.391Z,13.72
2023-01-02T09:31:24.542Z,13.71
2023-01-02T09:34:49.735Z,13.71
2023-01-02T09:38:14.914Z,13.68
2023-01-02T09:41:40.092Z,13.64
2023-01-02T09:45:08.701Z,13.63
2023-01-02T09:48:30.468Z,13.61
2023-01-02T09:51:55.655Z,13.63
2023-01-02T09:55:20.814Z,13.65
2023-01-02T09:58:45.997Z,13.65
2023-01-02T10:02:11.160Z,13.64
2023-01-02T10:05:36.352Z,13.65
2023-01-02T10:09:01.609Z,13.64
2023-01-02T10:12:26.733Z,13.66
2023-01-02T10:15:52.142Z,13.66
2023-01-02T10:19:18.162Z,13.69
2023-01-02T10:22:43.779Z,13.75
2023-01-02T10:26:09.104Z,13.82
2023-01-02T10:29:34.343Z,13.9
2023-01-02T10:32:59.588Z,14.02
2023-01-02T10:36:24.803Z,14.12
2023-01-02T10:39:50.038Z,14.18
2023-01-02T10:43:15.553Z,14.2
2023-01-02T10:46:40.612Z,14.21
2023-01-02T10:50:05.882Z,14.22
2023-01-02T10:53:31.163Z,14.25
2023-01-02T10:56:56.377Z,14.36
2023-01-02T11:00:27.674Z,14.39
2023-01-02T11:03:46.863Z,14.48
2023-01-02T11:07:12.114Z,14.57
2023-01-02T11:10:37.345Z,14.7
2023-01-02T11:14:02.592Z,14.83
2023-01-02T11:17:27.834Z,14.9
2023-01-02T11:20:53.062Z,14.96
2023-01-02T11:24:18.326Z,15.05
2023-01-02T11:27:43.562Z,15.15
2023-01-02T11:31:08.877Z,15.22
2023-01-02T11:34:34.035Z,15.21
2023-01-02T11:37:59.223Z,15.24
2023-01-02T11:41:24.470Z,15.3
2023-01-02T11:44:49.711Z,15.41
2023-01-02T11:48:14.985Z,15.5
2023-01-02T11:51:40.383Z,15.5
2023-01-02T11:55:05.538Z,15.49
2023-01-02T11:58:30.812Z,15.46
2023-01-02T12:01:56.140Z,15.39
2023-01-02T12:05:21.377Z,15.35
2023-01-02T12:08:51.271Z,15.32
2023-01-02T12:12:12.056Z,15.27
2023-01-02T12:15:37.213Z,15.27
2023-01-02T12:19:02.541Z,15.21
2023-01-02T12:22:27.808Z,15.19
2023-01-02T12:25:53.121Z,15.2
2023-01-02T12:29:45.916Z,15.17
2023-01-02T12:32:43.612Z,15.16
2023-01-02T12:36:08.968Z,15.17
2023-01-02T12:39:34.246Z,15.2
2023-01-02T12:42:59.644Z,15.18
2023-01-02T12:46:24.827Z,15.14
2023-01-02T12:49:50.221Z,15.13
2023-01-02T12:53:15.523Z,15.15
2023-01-02T12:56:40.818Z,15.15
2023-01-02T13:00:06.134Z,15.17
2023-01-02T13:03:31.514Z,15.15
2023-01-02T13:06:56.661Z,15.13
2023-01-02T13:10:21.958Z,15.15
2023-01-02T13:13:47.217Z,15.16
2023-01-02T13:17:13.710Z,15.18
2023-01-02T13:20:38.909Z,15.17
2023-01-02T13:24:04.194Z,15.16
2023-01-02T13:27:29.516Z,15.11
2023-01-02T13:31:05.308Z,15.08
2023-01-02T13:34:21.876Z,15.09
2023-01-02T13:37:45.415Z,15.13
2023-01-02T13:41:10.816Z,15.13
2023-01-02T13:44:36.137Z,15.1
2023-01-02T13:48:01.430Z,15.06
2023-01-02T13:51:26.773Z,14.97
2023-01-02T13:54:52.124Z,14.92
2023-01-02T13:58:17.418Z,14.89
2023-01-02T14:01:42.946Z,14.82
2023-01-02T14:05:08.050Z,14.79
2023-01-02T14:08:33.540Z,14.74
2023-01-02T14:11:58.691Z,14.71
2023-01-02T14:15:24.102Z,14.68
2023-01-02T14:18:49.263Z,14.62
2023-01-02T14:22:14.534Z,14.58
2023-01-02T14:25:39.889Z,14.56
2023-01-02T14:29:05.179Z,14.52
2023-01-02T15:03:57.215Z,12.23
2023-01-02T15:07:22.332Z,13.16
2023-01-02T15:10:47.671Z,13.34
2023-01-02T15:14:12.981Z,13.52
2023-01-02T15:17:38.302Z,13.65
2023-01-02T15:21:03.597Z,13.81
2023-01-02T15:24:28.819Z,13.89
2023-01-02T15:27:54.152Z,13.95
2023-01-02T15:31:19.550Z,13.96
2023-01-02T15:34:44.880Z,14.01
2023-01-02T15:38:10.223Z,14.01
2023-01-02T15:41:36.380Z,13.96
2023-01-02T15:45:01.650Z,13.92
2023-01-02T15:48:26.954Z,13.92
2023-01-02T15:51:52.160Z,13.89
2023-01-02T15:55:17.522Z,13.85
2023-01-02T15:58:42.775Z,13.83
2023-01-02T16:02:08.492Z,13.8
2023-01-02T16:05:33.354Z,13.8
2023-01-02T16:08:58.620Z,13.79
2023-01-02T16:12:24.046Z,13.78
2023-01-02T16:15:49.357Z,13.77
2023-01-02T16:19:14.610Z,13.77
2023-01-02T16:22:39.930Z,13.75
2023-01-02T16:26:05.235Z,13.7
2023-01-02T16:29:30.614Z,13.66
2023-01-02T16:32:55.826Z,13.61
2023-01-02T16:36:21.150Z,13.61
2023-01-02T16:39:46.449Z,13.59
2023-01-02T16:43:11.779Z,13.59
2023-01-02T16:46:37.140Z,13.56
2023-01-02T16:50:02.433Z,13.56
2023-01-02T16:53:27.783Z,13.58
2023-01-02T16:56:53.081Z,13.58
2023-01-02T17:00:18.424Z,13.54
2023-01-02T17:03:43.785Z,13.54
2023-01-02T17:07:09.007Z,13.55
2023-01-02T17:10:34.316Z,13.53
2023-01-02T17:13:59.677Z,13.54
2023-01-02T17:17:24.983Z,13.52
2023-01-02T17:20:50.440Z,13.5
2023-01-02T17:24:15.745Z,13.51
2023-01-02T17:27:41.538Z,13.5
2023-01-02T17:31:09.050Z,13.5
2023-01-02T17:34:34.415Z,13.5
2023-01-02T17:37:59.756Z,13.5
2023-01-02T17:41:27.729Z,13.49
2023-01-02T17:44:56.381Z,13.49
2023-01-02T17:48:24.807Z,13.47
2023-01-02T17:51:49.798Z,13.47
2023-01-02T17:55:15.199Z,13.46
2023-01-02T17:58:40.641Z,13.41
2023-01-02T18:02:05.977Z,13.37
2023-01-02T18:05:31.254Z,13.38
2023-01-02T18:08:56.530Z,13.39
2023-01-02T18:12:22.196Z,13.39
2023-01-02T18:15:47.619Z,13.38
2023-01-02T18:19:13.347Z,13.39
2023-01-02T18:22:42.530Z,13.35
2023-01-02T18:26:03.912Z,13.32
2023-01-02T18:29:29.221Z,13.3
2023-01-02T18:32:54.538Z,13.31
2023-01-02T18:36:19.833Z,13.32
2023-01-02T18:39:45.155Z,13.32
2023-01-02T18:43:10.468Z,13.34
2023-01-02T18:47:02.584Z,13.34
2023-01-02T18:50:01.181Z,13.35
2023-01-02T18:53:26.433Z,13.37
2023-01-02T18:56:51.649Z,13.36
2023-01-02T19:00:16.945Z,13.33
2023-01-02T19:03:42.263Z,13.29
2023-01-02T19:07:07.508Z,13.26
2023-01-02T19:10:36.532Z,13.2
2023-01-02T19:13:58.947Z,13.16
2023-01-02T19:17:23.411Z,13.15
2023-01-02T19:20:48.740Z,13.16
2023-01-02T19:24:13.998Z,13.12
2023-01-02T19:27:39.288Z,13.03
2023-01-02T19:31:04.532Z,12.98
2023-01-02T19:34:29.799Z,12.94
2023-01-02T19:37:55.837Z,12.85
2023-01-02T19:41:20.943Z,12.75
2023-01-02T19:44:46.266Z,12.7
2023-01-02T19:48:16.356Z,12.65
2023-01-02T19:51:36.817Z,12.62
2023-01-02T19:55:02.211Z,12.59
2023-01-02T19:58:27.390Z,12.53
2023-01-02T20:01:52.751Z,12.44
2023-01-02T20:05:21.620Z,12.35
2023-01-02T20:08:43.285Z,12.32
2023-01-02T20:12:08.578Z,12.3
2023-01-02T20:15:33.869Z,12.26
2023-01-02T20:18:59.131Z,12.19
2023-01-02T20:22:24.371Z,12.07
2023-01-02T20:25:49.706Z,12
2023-01-02T20:29:14.989Z,11.96
2023-01-02T20:32:40.258Z,11.92
2023-01-02T20:36:09.851Z,11.84
2023-01-02T20:39:30.843Z,11.75
2023-01-02T20:42:56.128Z,11.69
2023-01-02T20:46:21.514Z,11.64
2023-01-02T20:49:46.741Z,11.62
2023-01-02T20:53:12.001Z,11.58
2023-01-02T20:56:37.286Z,11.56
2023-01-02T21:00:02.717Z,11.51
2023-01-02T21:03:28.167Z,11.5
2023-01-02T21:06:53.185Z,11.51
2023-01-02T21:10:18.480Z,11.54
2023-01-02T21:13:43.788Z,11.6
2023-01-02T21:17:09.050Z,11.62
2023-01-02T21:20:34.400Z,11.58
2023-01-02T21:23:59.691Z,11.55
2023-01-02T21:27:24.974Z,11.53
2023-01-02T21:30:50.303Z,11.54
2023-01-02T21:34:15.699Z,11.54
2023-01-02T21:37:41.162Z,11.54
2023-01-02T21:41:06.430Z,11.58
2023-01-02T21:44:31.703Z,11.65
2023-01-02T21:47:58.679Z,11.68
2023-01-02T21:51:26.467Z,11.7
2023-01-02T21:54:49.289Z,11.71
2023-01-02T21:58:15.147Z,11.69
2023-01-02T22:01:39.892Z,11.7
2023-01-02T22:05:05.211Z,11.72
2023-01-02T22:08:30.348Z,11.75
2023-01-02T22:11:55.682Z,11.74
2023-01-02T22:15:20.888Z,11.76
2023-01-02T22:18:46.182Z,11.72
2023-01-02T22:22:11.456Z,11.7
2023-01-02T22:25:37.880Z,11.63
2023-01-02T22:29:04.137Z,11.49
2023-01-02T22:32:29.283Z,11.33
2023-01-02T22:35:54.545Z,11.22
2023-01-02T22:39:28.517Z,11.18
2023-01-02T22:43:02.602Z,11.13
2023-01-02T22:46:10.318Z,11.06
2023-01-02T22:49:35.561Z,10.97
2023-01-02T22:53:00.779Z,10.95
2023-01-02T22:56:26.002Z,10.91
2023-01-02T22:59:51.257Z,10.84
2023-01-02T23:03:16.652Z,10.81
2023-01-02T23:07:05.520Z,10.81
2023-01-02T23:10:07.006Z,10.81
2023-01-02T23:13:32.255Z,10.79
2023-01-02T23:16:57.562Z,10.75
2023-01-02T23:20:22.763Z,10.76
2023-01-02T23:23:47.979Z,10.74
2023-01-02T23:27:13.250Z,10.69
2023-01-02T23:30:38.500Z,10.66
2023-01-02T23:34:03.738Z,10.66
2023-01-02T23:37:29.087Z,10.6
2023-01-02T23:40:54.210Z,10.56
2023-01-02T23:44:19.448Z,10.47
2023-01-02T23:47:44.704Z,10.48
2023-01-02T23:51:09.955Z,10.48
2023-01-02T23:54:35.239Z,10.55
2023-01-02T23:58:00.474Z,10.6
